createdAt,value
2019-05-23T00:00:43.218Z,4.28
2019-05-23T00:02:16.099Z,4.35
2019-05-23T00:03:41.016Z,4.10
2019-05-23T00:05:07.876Z,4.40
2019-05-23T00:06:38.218Z,4.40
2019-05-23T00:08:00.971Z,4.08
2019-05-23T00:09:25.885Z,4.05
2019-05-23T00:10:40.946Z,4.30
2019-05-23T00:12:04.911Z,4.08
2019-05-23T00:13:29.288Z,4.55
2019-05-23T00:14:40.025Z,4.15
2019-05-23T00:15:46.320Z,4.15
2019-05-23T00:16:52.654Z,4.65
2019-05-23T00:17:57.683Z,4.00
2019-05-23T00:19:02.871Z,4.20
2019-05-23T00:20:08.030Z,4.22
2019-05-23T00:21:14.645Z,4.42
2019-05-23T00:22:19.893Z,4.50
2019-05-23T00:23:26.115Z,4.10
2019-05-23T00:24:30.672Z,4.37
2019-05-23T00:25:36.875Z,3.92
2019-05-23T00:26:41.527Z,3.85
2019-05-23T00:27:47.904Z,4.20
2019-05-23T00:29:08.989Z,4.45
2019-05-23T00:30:02.337Z,4.15
2019-05-23T00:31:11.736Z,4.05
2019-05-23T00:32:24.491Z,4.37
2019-05-23T00:33:30.541Z,4.15
2019-05-23T00:34:37.228Z,3.75
2019-05-23T00:35:42.085Z,3.75
2019-05-23T00:36:47.768Z,4.45
2019-05-23T00:37:53.596Z,3.72
2019-05-23T00:39:00.006Z,3.92
2019-05-23T00:40:08.886Z,3.90
2019-05-23T00:41:14.933Z,4.65
2019-05-23T00:42:21.121Z,4.55
2019-05-23T00:43:28.243Z,3.80
2019-05-23T00:44:32.663Z,4.20
2019-05-23T00:45:38.472Z,4.37
2019-05-23T00:46:43.765Z,3.98
2019-05-23T00:47:49.138Z,4.35
2019-05-23T00:48:54.621Z,3.80
2019-05-23T00:49:59.597Z,3.98
2019-05-23T00:51:05.851Z,4.00
2019-05-23T00:52:11.565Z,4.30
2019-05-23T00:53:17.586Z,3.72
2019-05-23T00:54:23.524Z,3.77
2019-05-23T00:55:29.253Z,4.15
2019-05-23T00:56:36.972Z,4.15
2019-05-23T00:57:41.613Z,4.03
2019-05-23T00:58:47.159Z,4.20
2019-05-23T00:59:51.719Z,3.15
2019-05-23T01:00:58.153Z,4.00
2019-05-23T01:02:02.956Z,4.03
2019-05-23T01:03:10.617Z,4.40
2019-05-23T01:04:16.744Z,3.87
2019-05-23T01:05:22.885Z,3.83
2019-05-23T01:06:27.665Z,4.08
2019-05-23T01:07:33.196Z,4.10
2019-05-23T01:08:38.350Z,4.25
2019-05-23T01:09:44.868Z,4.10
2019-05-23T01:10:51.401Z,4.40
2019-05-23T01:11:57.031Z,4.25
2019-05-23T01:13:02.823Z,3.98
2019-05-23T01:14:09.335Z,4.65
2019-05-23T01:15:14.603Z,4.08
2019-05-23T01:16:19.673Z,4.05
2019-05-23T01:17:28.774Z,4.12
2019-05-23T01:18:34.017Z,4.42
2019-05-23T01:19:39.653Z,3.85
2019-05-23T01:21:01.428Z,4.03
2019-05-23T01:22:08.269Z,3.87
2019-05-23T01:23:13.830Z,3.72
2019-05-23T01:24:25.671Z,3.92
2019-05-23T01:25:31.109Z,3.85
2019-05-23T01:26:36.706Z,4.22
2019-05-23T01:27:41.775Z,3.95
2019-05-23T01:28:46.758Z,4.33
2019-05-23T01:29:52.995Z,4.00
2019-05-23T01:30:59.160Z,4.35
2019-05-23T01:32:14.526Z,3.85
2019-05-23T01:33:19.769Z,4.35
2019-05-23T01:34:25.826Z,3.90
2019-05-23T01:35:31.809Z,4.78
2019-05-23T01:36:36.927Z,4.17
2019-05-23T01:37:43.621Z,4.00
2019-05-23T01:38:48.127Z,4.08
2019-05-23T01:39:54.105Z,4.30
2019-05-23T01:40:59.481Z,3.62
2019-05-23T01:42:05.128Z,4.60
2019-05-23T01:43:10.599Z,3.72
2019-05-23T01:44:16.935Z,4.12
2019-05-23T01:45:22.664Z,4.90
2019-05-23T01:46:29.113Z,4.03
2019-05-23T01:47:34.467Z,3.87
2019-05-23T01:48:40.748Z,4.15
2019-05-23T01:49:45.234Z,4.22
2019-05-23T01:50:50.961Z,4.10
2019-05-23T01:51:57.096Z,4.15
2019-05-23T01:53:02.110Z,4.45
2019-05-23T01:54:07.093Z,4.33
2019-05-23T01:55:12.611Z,4.17
2019-05-23T01:56:18.305Z,4.20
2019-05-23T01:57:24.821Z,3.62
2019-05-23T01:58:29.702Z,4.22
2019-05-23T01:59:35.223Z,4.03
2019-05-23T02:00:40.178Z,3.67
2019-05-23T02:01:45.688Z,3.87
2019-05-23T02:02:51.237Z,4.40
2019-05-23T02:03:56.596Z,3.33
2019-05-23T02:05:01.352Z,3.98
2019-05-23T02:06:07.154Z,3.90
2019-05-23T02:07:11.943Z,3.60
2019-05-23T02:08:17.115Z,3.87
2019-05-23T02:09:22.190Z,3.72
2019-05-23T02:10:28.059Z,4.33
2019-05-23T02:11:33.280Z,3.87
2019-05-23T02:12:39.888Z,3.60
2019-05-23T02:13:46.682Z,4.08
2019-05-23T02:14:53.067Z,5.00
2019-05-23T02:15:57.630Z,3.98
2019-05-23T02:17:03.113Z,3.90
2019-05-23T02:18:09.304Z,3.75
2019-05-23T02:19:15.083Z,3.70
2019-05-23T02:20:20.376Z,3.62
2019-05-23T02:21:27.627Z,3.77
2019-05-23T02:22:32.868Z,3.95
2019-05-23T02:23:38.583Z,3.98
2019-05-23T02:24:44.463Z,3.70
2019-05-23T02:25:49.756Z,4.20
2019-05-23T02:26:54.886Z,3.95
2019-05-23T02:28:00.980Z,3.60
2019-05-23T02:29:06.384Z,4.08
2019-05-23T02:30:33.125Z,3.85
2019-05-23T02:31:23.396Z,3.05
2019-05-23T02:32:28.793Z,3.80
2019-05-23T02:33:33.579Z,3.77
2019-05-23T02:34:40.116Z,3.50
2019-05-23T02:35:44.678Z,3.35
2019-05-23T02:36:50.449Z,3.72
2019-05-23T02:39:37.741Z,4.17
2019-05-23T02:41:03.183Z,4.10
2019-05-23T02:42:09.316Z,4.00
2019-05-23T02:43:29.100Z,4.08
2019-05-23T02:44:34.648Z,3.85
2019-05-23T02:45:43.749Z,3.77
2019-05-23T02:46:50.118Z,3.62
2019-05-23T02:47:55.264Z,4.10
2019-05-23T02:49:01.330Z,3.67
2019-05-23T02:50:08.583Z,4.22
2019-05-23T02:51:29.440Z,3.42
2019-05-23T02:52:38.581Z,4.28
2019-05-23T02:53:44.478Z,3.30
2019-05-23T02:54:49.957Z,3.77
2019-05-23T02:55:58.286Z,3.90
2019-05-23T02:57:05.299Z,3.90
2019-05-23T02:58:18.901Z,3.58
2019-05-23T02:59:36.622Z,3.62
2019-05-23T03:00:56.170Z,3.70
2019-05-23T03:02:05.281Z,3.15
2019-05-23T03:03:11.830Z,3.65
2019-05-23T03:04:18.286Z,4.00
2019-05-23T03:05:26.014Z,3.95
2019-05-23T03:06:32.874Z,5.15
2019-05-23T03:07:38.828Z,3.50
2019-05-23T03:08:45.073Z,3.40
2019-05-23T03:09:51.142Z,3.27
2019-05-23T03:10:59.231Z,3.83
2019-05-23T03:12:05.922Z,3.72
2019-05-23T03:13:12.645Z,3.70
2019-05-23T03:14:19.228Z,4.10
2019-05-23T03:15:25.443Z,4.25
2019-05-23T03:16:32.700Z,3.58
2019-05-23T03:17:43.570Z,3.50
2019-05-23T03:18:52.968Z,3.52
2019-05-23T03:20:00.161Z,3.98
2019-05-23T03:21:05.911Z,3.52
2019-05-23T03:22:28.900Z,3.62
2019-05-23T03:23:33.791Z,3.98
2019-05-23T03:24:39.675Z,3.90
2019-05-23T03:26:05.275Z,3.47
2019-05-23T03:27:11.338Z,3.80
2019-05-23T03:28:18.865Z,3.85
2019-05-23T03:29:24.386Z,3.85
2019-05-23T03:30:34.049Z,4.45
2019-05-23T03:31:59.946Z,3.67
2019-05-23T03:33:08.868Z,4.50
2019-05-23T03:34:14.305Z,3.52
2019-05-23T03:35:26.334Z,3.60
2019-05-23T03:36:31.656Z,3.42
2019-05-23T03:37:36.491Z,4.33
2019-05-23T03:38:44.093Z,3.10
2019-05-23T03:39:49.462Z,3.80
2019-05-23T03:40:55.616Z,4.00
2019-05-23T03:42:00.681Z,4.47
2019-05-23T03:43:09.286Z,4.10
2019-05-23T03:44:13.784Z,3.55
2019-05-23T03:45:20.166Z,3.52
2019-05-23T03:46:26.376Z,3.92
2019-05-23T03:47:32.055Z,3.75
2019-05-23T03:48:38.638Z,4.30
2019-05-23T03:49:43.818Z,3.92
2019-05-23T03:50:48.967Z,4.12
2019-05-23T03:51:56.103Z,3.67
2019-05-23T03:53:01.167Z,4.05
2019-05-23T03:54:06.504Z,3.90
2019-05-23T03:55:11.864Z,3.75
2019-05-23T03:56:17.002Z,4.08
2019-05-23T03:57:25.713Z,4.83
2019-05-23T03:58:30.790Z,3.92
2019-05-23T03:59:35.741Z,3.77
2019-05-23T04:00:42.065Z,3.85
2019-05-23T04:01:49.593Z,3.77
2019-05-23T04:02:55.704Z,4.05
2019-05-23T04:04:00.710Z,3.90
2019-05-23T04:05:08.736Z,4.53
2019-05-23T04:06:14.077Z,3.72
2019-05-23T04:07:20.112Z,3.83
2019-05-23T04:08:24.908Z,3.70
2019-05-23T04:09:30.311Z,3.92
2019-05-23T04:10:35.429Z,4.65
2019-05-23T04:11:41.117Z,4.00
2019-05-23T04:12:47.444Z,9.70
2019-05-23T04:13:52.639Z,9.75
2019-05-23T04:14:57.578Z,5.30
2019-05-23T04:16:03.226Z,5.28
2019-05-23T04:17:10.736Z,4.87
2019-05-23T04:18:15.995Z,5.10
2019-05-23T04:19:20.441Z,4.50
2019-05-23T04:20:26.177Z,3.75
2019-05-23T04:21:30.996Z,4.50
2019-05-23T04:22:37.113Z,4.28
2019-05-23T04:23:41.618Z,3.90
2019-05-23T04:24:46.694Z,3.83
2019-05-23T04:25:51.893Z,3.72
2019-05-23T04:26:57.364Z,3.47
2019-05-23T04:28:02.125Z,3.92
2019-05-23T04:29:07.196Z,4.00
2019-05-23T04:30:12.173Z,4.25
2019-05-23T04:31:18.479Z,3.92
2019-05-23T04:32:23.111Z,5.15
2019-05-23T04:33:28.103Z,5.45
2019-05-23T04:34:32.599Z,5.33
2019-05-23T04:35:37.670Z,4.17
2019-05-23T04:36:42.166Z,4.17
2019-05-23T04:37:47.737Z,4.75
2019-05-23T04:38:52.160Z,4.42
2019-05-23T04:39:58.057Z,4.87
2019-05-23T04:41:02.784Z,5.62
2019-05-23T04:42:09.244Z,4.55
2019-05-23T04:43:13.664Z,6.00
2019-05-23T04:44:19.709Z,5.00
2019-05-23T04:45:24.491Z,5.03
2019-05-23T04:46:29.454Z,5.40
2019-05-23T04:47:34.439Z,4.95
2019-05-23T04:48:39.853Z,4.10
2019-05-23T04:49:45.008Z,4.60
2019-05-23T04:50:50.451Z,4.28
2019-05-23T04:51:55.482Z,4.22
2019-05-23T04:53:00.952Z,4.67
2019-05-23T04:54:06.389Z,4.72
2019-05-23T04:55:13.832Z,6.55
2019-05-23T04:56:18.519Z,5.08
2019-05-23T04:57:27.057Z,4.50
2019-05-23T04:58:31.537Z,3.80
2019-05-23T04:59:36.685Z,5.58
2019-05-23T05:00:41.279Z,4.28
2019-05-23T05:01:46.432Z,3.80
2019-05-23T05:02:51.240Z,4.30
2019-05-23T05:03:58.280Z,3.85
2019-05-23T05:05:03.385Z,3.95
2019-05-23T05:06:08.537Z,5.50
2019-05-23T05:07:13.025Z,5.28
2019-05-23T05:08:18.425Z,4.37
2019-05-23T05:09:32.124Z,4.50
2019-05-23T05:10:37.777Z,3.50
2019-05-23T05:11:42.839Z,3.50
2019-05-23T05:12:48.502Z,3.58
2019-05-23T05:13:53.288Z,4.47
2019-05-23T05:14:58.361Z,4.40
2019-05-23T05:16:02.790Z,6.15
2019-05-23T05:17:08.206Z,4.55
2019-05-23T05:18:13.262Z,4.80
2019-05-23T05:19:18.710Z,5.90
2019-05-23T05:20:23.473Z,3.50
2019-05-23T05:21:28.640Z,3.42
2019-05-23T05:22:33.495Z,4.22
2019-05-23T05:23:38.990Z,4.33
2019-05-23T05:24:43.476Z,4.03
2019-05-23T05:25:48.548Z,4.47
2019-05-23T05:26:53.309Z,3.77
2019-05-23T05:27:58.683Z,4.40
2019-05-23T05:29:04.033Z,4.83
2019-05-23T05:30:09.677Z,5.20
2019-05-23T05:31:14.246Z,4.45
2019-05-23T05:32:21.175Z,3.80
2019-05-23T05:33:26.462Z,3.90
2019-05-23T05:34:31.925Z,3.35
2019-05-23T05:35:37.484Z,3.62
2019-05-23T05:36:42.765Z,3.50
2019-05-23T05:37:47.244Z,3.20
2019-05-23T05:38:53.042Z,3.45
2019-05-23T05:39:57.546Z,3.98
2019-05-23T05:41:02.601Z,10.30
2019-05-23T05:42:09.230Z,3.98
2019-05-23T05:43:15.766Z,2.65
2019-05-23T05:44:21.174Z,2.80
2019-05-23T05:45:26.306Z,3.55
2019-05-23T05:46:33.177Z,2.60
2019-05-23T05:47:38.685Z,3.08
2019-05-23T05:48:43.511Z,2.22
2019-05-23T05:49:49.648Z,2.87
2019-05-23T05:50:54.895Z,2.47
2019-05-23T05:52:00.091Z,2.37
2019-05-23T05:53:04.965Z,2.27
2019-05-23T05:54:10.939Z,3.42
2019-05-23T05:55:15.996Z,2.75
2019-05-23T05:56:20.997Z,5.92
2019-05-23T05:57:25.425Z,3.15
2019-05-23T05:58:30.535Z,5.03
2019-05-23T05:59:35.117Z,6.72
2019-05-23T06:00:47.093Z,2.65
2019-05-23T06:01:51.532Z,2.58
2019-05-23T06:03:04.192Z,4.55
2019-05-23T06:04:03.963Z,2.87
2019-05-23T06:05:11.562Z,2.98
2019-05-23T06:06:32.785Z,2.87
2019-05-23T06:07:38.994Z,1.95
2019-05-23T06:08:45.169Z,3.00
2019-05-23T06:09:51.270Z,2.52
2019-05-23T06:10:55.756Z,2.15
2019-05-23T06:12:01.509Z,2.85
2019-05-23T06:13:06.068Z,2.27
2019-05-23T06:14:11.097Z,2.42
2019-05-23T06:15:15.860Z,2.58
2019-05-23T06:16:21.125Z,3.55
2019-05-23T06:17:25.701Z,2.05
2019-05-23T06:18:30.917Z,2.22
2019-05-23T06:19:35.617Z,1.98
2019-05-23T06:20:43.562Z,2.10
2019-05-23T06:21:48.795Z,2.20
2019-05-23T06:22:53.950Z,2.35
2019-05-23T06:23:59.111Z,2.25
2019-05-23T06:25:05.224Z,6.15
2019-05-23T06:26:11.146Z,1.75
2019-05-23T06:27:17.203Z,2.02
2019-05-23T06:28:22.008Z,2.00
2019-05-23T06:29:27.111Z,2.20
2019-05-23T06:30:33.358Z,2.02
2019-05-23T06:31:38.739Z,2.52
2019-05-23T06:32:43.228Z,2.02
2019-05-23T06:33:48.330Z,9.93
2019-05-23T06:35:08.571Z,4.84
2019-05-23T06:36:13.920Z,2.15
2019-05-23T06:37:18.430Z,2.25
2019-05-23T06:38:24.528Z,5.37
2019-05-23T06:39:29.042Z,2.62
2019-05-23T06:40:34.460Z,1.80
2019-05-23T06:41:39.467Z,1.50
2019-05-23T06:42:44.931Z,2.10
2019-05-23T06:43:49.508Z,2.17
2019-05-23T06:44:55.738Z,6.25
2019-05-23T06:46:00.224Z,2.20
2019-05-23T06:47:06.837Z,2.45
2019-05-23T06:48:13.664Z,1.70
2019-05-23T06:49:18.755Z,1.57
2019-05-23T06:50:24.959Z,2.33
2019-05-23T06:51:30.263Z,1.57
2019-05-23T06:52:35.025Z,3.22
2019-05-23T06:53:40.091Z,1.50
2019-05-23T06:54:44.595Z,1.30
2019-05-23T06:55:49.660Z,1.27
2019-05-23T06:56:54.146Z,1.50
2019-05-23T06:57:59.154Z,1.70
2019-05-23T06:59:04.207Z,2.75
2019-05-23T07:00:10.322Z,2.15
2019-05-23T07:01:15.390Z,2.33
2019-05-23T07:02:20.697Z,1.70
2019-05-23T07:03:40.405Z,1.40
2019-05-23T07:04:33.046Z,1.50
2019-05-23T07:05:38.203Z,1.80
2019-05-23T07:06:43.512Z,1.85
2019-05-23T07:07:48.547Z,1.80
2019-05-23T07:08:54.851Z,1.35
2019-05-23T07:10:00.426Z,1.47
2019-05-23T07:11:05.454Z,1.27
2019-05-23T07:12:10.791Z,2.05
2019-05-23T07:13:16.825Z,2.10
2019-05-23T07:14:21.795Z,1.10
2019-05-23T07:15:28.023Z,1.42
2019-05-23T07:16:32.576Z,1.57
2019-05-23T07:17:38.511Z,1.17
2019-05-23T07:18:44.769Z,1.45
2019-05-23T07:19:50.278Z,1.40
2019-05-23T07:20:54.706Z,1.62
2019-05-23T07:21:59.752Z,1.50
2019-05-23T07:23:05.610Z,4.00
2019-05-23T07:24:11.231Z,3.17
2019-05-23T07:25:15.801Z,1.52
2019-05-23T07:26:20.941Z,2.55
2019-05-23T07:27:26.186Z,2.05
2019-05-23T07:28:31.185Z,1.62
2019-05-23T07:29:35.746Z,1.20
2019-05-23T07:30:40.812Z,1.40
2019-05-23T07:31:45.251Z,1.30
2019-05-23T07:32:50.411Z,1.40
2019-05-23T07:34:01.618Z,1.40
2019-05-23T07:35:02.893Z,1.10
2019-05-23T07:36:09.107Z,3.25
2019-05-23T07:37:14.348Z,1.50
2019-05-23T07:38:19.193Z,1.57
2019-05-23T07:39:24.208Z,1.55
2019-05-23T07:40:28.902Z,2.40
2019-05-23T07:41:33.950Z,1.75
2019-05-23T07:42:38.632Z,1.95
2019-05-23T07:43:44.036Z,2.15
2019-05-23T07:44:50.164Z,1.82
2019-05-23T07:45:59.720Z,2.35
2019-05-23T07:47:04.286Z,2.70
2019-05-23T07:48:09.595Z,2.00
2019-05-23T07:49:14.618Z,2.67
2019-05-23T07:50:19.996Z,7.65
2019-05-23T07:51:24.403Z,2.65
2019-05-23T07:52:29.643Z,2.12
2019-05-23T07:53:39.004Z,2.98
2019-05-23T07:54:45.147Z,2.33
2019-05-23T07:55:54.377Z,2.77
2019-05-23T07:56:59.363Z,1.60
2019-05-23T07:58:05.165Z,2.45
2019-05-23T07:59:09.577Z,2.12
2019-05-23T08:00:18.783Z,2.08
2019-05-23T08:01:27.575Z,3.05
2019-05-23T08:02:36.267Z,2.92
2019-05-23T08:03:41.421Z,3.52
2019-05-23T08:04:46.766Z,4.83
2019-05-23T08:05:52.224Z,2.17
2019-05-23T08:06:57.981Z,2.95
2019-05-23T08:08:03.107Z,1.60
2019-05-23T08:09:10.067Z,1.72
2019-05-23T08:10:30.894Z,1.80
2019-05-23T08:11:23.093Z,1.67
2019-05-23T08:12:27.861Z,2.65
2019-05-23T08:13:33.299Z,2.10
2019-05-23T08:14:37.709Z,2.05
2019-05-23T08:15:43.515Z,2.10
2019-05-23T08:16:48.038Z,1.60
2019-05-23T08:17:53.021Z,1.80
2019-05-23T08:18:57.493Z,4.47
2019-05-23T08:20:02.652Z,3.15
2019-05-23T08:21:08.243Z,2.00
2019-05-23T08:22:13.296Z,1.92
2019-05-23T08:23:17.862Z,2.00
2019-05-23T08:24:23.509Z,2.15
2019-05-23T08:25:28.064Z,1.72
2019-05-23T08:26:34.521Z,2.22
2019-05-23T08:27:39.056Z,3.70
2019-05-23T08:29:11.413Z,3.95
2019-05-23T08:29:51.349Z,2.22
2019-05-23T08:30:56.644Z,1.90
2019-05-23T08:32:01.352Z,3.35
2019-05-23T08:33:07.550Z,1.92
2019-05-23T08:34:12.301Z,2.33
2019-05-23T08:35:18.200Z,2.33
2019-05-23T08:36:24.169Z,2.37
2019-05-23T08:37:29.611Z,2.10
2019-05-23T08:38:34.961Z,2.40
2019-05-23T08:39:41.687Z,3.12
2019-05-23T08:40:46.381Z,2.98
2019-05-23T08:41:52.242Z,2.25
2019-05-23T08:42:56.791Z,2.47
2019-05-23T08:44:02.244Z,2.10
2019-05-23T08:45:10.387Z,3.12
2019-05-23T08:46:15.863Z,1.90
2019-05-23T08:47:22.362Z,2.27
2019-05-23T08:48:27.571Z,1.80
2019-05-23T08:49:32.499Z,2.30
2019-05-23T08:50:38.145Z,2.02
2019-05-23T08:51:42.762Z,1.98
2019-05-23T08:52:48.134Z,1.82
2019-05-23T08:53:52.616Z,1.98
2019-05-23T08:55:00.688Z,2.10
2019-05-23T08:56:17.896Z,3.55
2019-05-23T08:57:12.835Z,2.52
2019-05-23T08:58:17.463Z,2.10
2019-05-23T08:59:23.818Z,3.15
2019-05-23T09:00:32.981Z,2.60
2019-05-23T09:01:38.303Z,2.75
2019-05-23T09:02:43.999Z,2.30
2019-05-23T09:03:50.062Z,2.52
2019-05-23T09:05:04.523Z,1.98
2019-05-23T09:06:02.400Z,1.80
2019-05-23T09:07:09.593Z,2.15
2019-05-23T09:08:17.022Z,13.62
2019-05-23T09:09:29.816Z,9.05
2019-05-23T09:10:30.385Z,2.55
2019-05-23T09:11:35.854Z,1.92
2019-05-23T09:12:41.199Z,16.45
2019-05-23T09:13:46.320Z,3.72
2019-05-23T09:14:51.389Z,2.00
2019-05-23T09:15:55.879Z,1.70
2019-05-23T09:17:01.277Z,2.92
2019-05-23T09:18:05.929Z,3.10
2019-05-23T09:19:11.006Z,3.15
2019-05-23T09:20:16.906Z,1.80
2019-05-23T09:21:21.907Z,1.98
2019-05-23T09:22:28.115Z,1.90
2019-05-23T09:23:33.112Z,1.75
2019-05-23T09:24:37.599Z,2.08
2019-05-23T09:25:42.931Z,2.10
2019-05-23T09:26:48.027Z,1.60
2019-05-23T09:27:54.072Z,1.55
2019-05-23T09:28:59.089Z,1.60
2019-05-23T09:30:06.103Z,2.02
2019-05-23T09:31:11.123Z,1.98
2019-05-23T09:32:16.220Z,1.40
2019-05-23T09:33:20.637Z,1.50
2019-05-23T09:34:25.887Z,1.70
2019-05-23T09:35:30.507Z,1.60
2019-05-23T09:36:36.314Z,1.60
2019-05-23T09:37:41.400Z,2.20
2019-05-23T09:38:46.631Z,2.55
2019-05-23T09:39:51.577Z,1.12
2019-05-23T09:40:56.823Z,1.20
2019-05-23T09:42:01.282Z,1.35
2019-05-23T09:43:06.886Z,1.82
2019-05-23T09:44:11.576Z,1.72
2019-05-23T09:45:19.007Z,1.50
2019-05-23T09:46:24.601Z,1.20
2019-05-23T09:47:29.724Z,1.30
2019-05-23T09:48:34.592Z,1.40
2019-05-23T09:49:39.670Z,4.22
2019-05-23T09:50:44.226Z,2.10
2019-05-23T09:51:51.405Z,1.62
2019-05-23T09:52:55.626Z,3.25
2019-05-23T09:54:00.932Z,1.85
2019-05-23T09:55:07.379Z,2.75
2019-05-23T09:56:12.569Z,1.50
2019-05-23T09:57:17.056Z,12.88
2019-05-23T09:58:22.132Z,2.40
2019-05-23T09:59:27.061Z,1.35
2019-05-23T10:00:33.178Z,1.42
2019-05-23T10:01:37.769Z,1.35
2019-05-23T10:02:43.205Z,1.92
2019-05-23T10:03:48.323Z,1.92
2019-05-23T10:04:53.600Z,1.77
2019-05-23T10:05:58.129Z,1.80
2019-05-23T10:07:03.501Z,1.42
2019-05-23T10:08:09.348Z,1.20
2019-05-23T10:09:14.780Z,0.90
2019-05-23T10:10:20.303Z,1.27
2019-05-23T10:11:25.434Z,1.77
2019-05-23T10:12:29.938Z,1.07
2019-05-23T10:13:38.988Z,1.47
2019-05-23T10:14:41.296Z,1.42
2019-05-23T10:15:56.367Z,1.30
2019-05-23T10:17:00.919Z,1.60
2019-05-23T10:18:06.656Z,1.10
2019-05-23T10:19:11.198Z,1.17
2019-05-23T10:20:16.846Z,1.17
2019-05-23T10:21:21.349Z,1.75
2019-05-23T10:22:26.699Z,1.20
2019-05-23T10:23:32.162Z,1.10
2019-05-23T10:24:37.621Z,1.70
2019-05-23T10:25:42.100Z,1.42
2019-05-23T10:26:47.233Z,1.35
2019-05-23T10:27:51.791Z,1.47
2019-05-23T10:28:56.912Z,1.30
2019-05-23T10:30:01.455Z,0.93
2019-05-23T10:31:07.572Z,1.15
2019-05-23T10:32:13.591Z,1.12
2019-05-23T10:33:18.755Z,2.60
2019-05-23T10:34:23.383Z,0.90
2019-05-23T10:35:28.485Z,0.75
2019-05-23T10:36:32.971Z,0.75
2019-05-23T10:37:38.044Z,1.10
2019-05-23T10:38:42.644Z,1.27
2019-05-23T10:39:50.702Z,0.98
2019-05-23T10:40:55.115Z,1.70
2019-05-23T10:42:00.179Z,1.07
2019-05-23T10:43:05.266Z,0.85
2019-05-23T10:44:10.559Z,1.42
2019-05-23T10:45:15.473Z,0.90
2019-05-23T10:46:20.813Z,1.50
2019-05-23T10:47:25.869Z,1.00
2019-05-23T10:48:31.507Z,1.70
2019-05-23T10:49:36.031Z,1.07
2019-05-23T10:50:44.586Z,1.30
2019-05-23T10:51:47.309Z,1.40
2019-05-23T10:52:52.555Z,0.78
2019-05-23T10:53:57.170Z,1.15
2019-05-23T10:55:02.246Z,2.12
2019-05-23T10:56:06.904Z,0.70
2019-05-23T10:57:13.302Z,1.20
2019-05-23T10:58:19.341Z,0.90
2019-05-23T10:59:24.476Z,0.93
2019-05-23T11:00:30.917Z,0.75
2019-05-23T11:01:36.576Z,0.90
2019-05-23T11:02:43.266Z,1.35
2019-05-23T11:03:49.042Z,1.27
2019-05-23T11:04:53.864Z,1.20
2019-05-23T11:06:14.465Z,1.25
2019-05-23T11:07:06.058Z,1.27
2019-05-23T11:08:10.904Z,1.77
2019-05-23T11:09:15.560Z,3.40
2019-05-23T11:10:22.050Z,3.45
2019-05-23T11:11:27.083Z,0.90
2019-05-23T11:12:32.523Z,0.80
2019-05-23T11:13:36.973Z,2.87
2019-05-23T11:14:42.371Z,2.22
2019-05-23T11:15:47.687Z,1.45
2019-05-23T11:16:53.675Z,1.12
2019-05-23T11:17:58.739Z,0.82
2019-05-23T11:19:03.967Z,1.40
2019-05-23T11:20:35.870Z,0.78
2019-05-23T11:21:39.551Z,1.17
2019-05-23T11:22:44.053Z,1.47
2019-05-23T11:23:50.384Z,2.77
2019-05-23T11:24:55.536Z,0.80
2019-05-23T11:26:01.604Z,0.80
2019-05-23T11:27:06.725Z,2.58
2019-05-23T11:28:11.894Z,0.90
2019-05-23T11:29:16.674Z,2.25
2019-05-23T11:30:28.877Z,1.95
2019-05-23T11:31:34.800Z,1.15
2019-05-23T11:32:39.858Z,1.07
2019-05-23T11:33:44.285Z,0.93
2019-05-23T11:34:49.593Z,1.07
2019-05-23T11:35:54.161Z,1.25
2019-05-23T11:37:00.529Z,1.20
2019-05-23T11:38:05.204Z,1.60
2019-05-23T11:39:10.912Z,0.85
2019-05-23T11:40:15.598Z,0.60
2019-05-23T11:41:21.423Z,1.50
2019-05-23T11:42:25.911Z,1.10
2019-05-23T11:43:30.909Z,1.10
2019-05-23T11:44:35.416Z,3.20
2019-05-23T11:45:46.088Z,2.90
2019-05-23T11:46:48.469Z,1.10
2019-05-23T11:47:53.833Z,1.47
2019-05-23T11:48:58.763Z,1.20
2019-05-23T11:50:05.305Z,1.52
2019-05-23T11:51:10.964Z,0.90
2019-05-23T11:52:16.243Z,1.00
2019-05-23T11:53:20.743Z,1.20
2019-05-23T11:54:26.010Z,1.10
2019-05-23T11:55:30.786Z,0.90
2019-05-23T11:56:37.427Z,1.12
2019-05-23T11:57:42.025Z,1.22
2019-05-23T11:58:47.169Z,1.02
2019-05-23T11:59:52.224Z,1.90
2019-05-23T12:01:10.468Z,0.90
2019-05-23T12:02:17.151Z,0.70
2019-05-23T12:03:22.252Z,1.00
2019-05-23T12:04:26.952Z,0.90
2019-05-23T12:05:32.472Z,1.30
2019-05-23T12:06:57.236Z,1.92
2019-05-23T12:08:02.309Z,0.95
2019-05-23T12:09:07.671Z,2.62
2019-05-23T12:10:14.384Z,1.00
2019-05-23T12:11:20.028Z,0.75
2019-05-23T12:12:25.765Z,1.37
2019-05-23T12:13:31.705Z,0.90
2019-05-23T12:14:36.867Z,0.78
2019-05-23T12:15:42.194Z,0.88
2019-05-23T12:16:47.636Z,1.20
2019-05-23T12:17:52.151Z,0.93
2019-05-23T12:18:57.226Z,0.80
2019-05-23T12:20:02.867Z,1.47
2019-05-23T12:21:08.311Z,0.90
2019-05-23T12:22:13.506Z,1.22
2019-05-23T12:23:18.506Z,1.60
2019-05-23T12:24:23.385Z,1.30
2019-05-23T12:25:28.917Z,0.90
2019-05-23T12:26:33.337Z,3.22
2019-05-23T12:27:39.140Z,1.98
2019-05-23T12:28:43.821Z,2.17
2019-05-23T12:29:48.943Z,4.33
2019-05-23T12:30:53.623Z,1.40
2019-05-23T12:31:58.702Z,1.25
2019-05-23T12:33:03.477Z,1.17
2019-05-23T12:34:08.559Z,2.25
2019-05-23T12:35:14.563Z,1.75
2019-05-23T12:36:19.901Z,1.72
2019-05-23T12:37:24.811Z,1.30
2019-05-23T12:38:29.808Z,1.17
2019-05-23T12:39:34.306Z,0.80
2019-05-23T12:40:39.395Z,1.12
2019-05-23T12:41:43.958Z,0.68
2019-05-23T12:42:49.023Z,0.70
2019-05-23T12:43:53.510Z,0.70
2019-05-23T12:44:59.751Z,3.00
2019-05-23T12:46:04.829Z,2.00
2019-05-23T12:47:11.029Z,1.47
2019-05-23T12:48:35.445Z,1.05
2019-05-23T12:49:41.575Z,0.60
2019-05-23T12:50:54.366Z,0.80
2019-05-23T12:51:59.328Z,2.47
2019-05-23T12:53:04.564Z,0.90
2019-05-23T12:54:09.651Z,0.88
2019-05-23T12:55:15.133Z,1.82
2019-05-23T12:56:19.962Z,0.70
2019-05-23T12:57:25.312Z,1.42
2019-05-23T12:58:30.547Z,0.80
2019-05-23T12:59:36.590Z,0.60
2019-05-23T13:00:42.925Z,0.90
2019-05-23T13:01:49.114Z,1.45
2019-05-23T13:02:54.715Z,1.32
2019-05-23T13:03:59.598Z,1.07
2019-05-23T13:05:07.640Z,0.80
2019-05-23T13:06:12.919Z,1.22
2019-05-23T13:07:34.653Z,1.80
2019-05-23T13:08:24.547Z,1.05
2019-05-23T13:09:29.784Z,0.65
2019-05-23T13:10:34.860Z,0.70
2019-05-23T13:11:40.097Z,0.80
2019-05-23T13:12:44.777Z,1.00
2019-05-23T13:13:50.039Z,0.68
2019-05-23T13:14:58.687Z,0.80
2019-05-23T13:16:01.582Z,1.85
2019-05-23T13:17:06.084Z,3.08
2019-05-23T13:18:11.080Z,1.00
2019-05-23T13:19:16.218Z,0.90
2019-05-23T13:20:21.822Z,0.95
2019-05-23T13:21:26.402Z,1.00
2019-05-23T13:22:31.425Z,1.00
2019-05-23T13:23:36.622Z,1.50
2019-05-23T13:24:52.521Z,1.40
2019-05-23T13:25:48.901Z,1.10
2019-05-23T13:26:53.914Z,1.10
2019-05-23T13:27:59.054Z,0.80
2019-05-23T13:29:04.176Z,0.72
2019-05-23T13:30:09.247Z,0.72
2019-05-23T13:31:14.411Z,1.60
2019-05-23T13:32:19.295Z,0.90
2019-05-23T13:33:25.037Z,0.95
2019-05-23T13:34:29.605Z,1.07
2019-05-23T13:35:34.798Z,1.10
2019-05-23T13:36:39.295Z,1.27
2019-05-23T13:37:53.708Z,1.77
2019-05-23T13:38:50.967Z,1.47
2019-05-23T13:39:56.037Z,1.10
2019-05-23T13:41:00.481Z,2.50
2019-05-23T13:42:05.689Z,1.37
2019-05-23T13:43:10.473Z,1.67
2019-05-23T13:44:32.009Z,1.40
2019-05-23T13:45:22.408Z,1.70
2019-05-23T13:46:27.840Z,1.02
2019-05-23T13:47:32.741Z,1.00
2019-05-23T13:48:39.065Z,1.10
2019-05-23T13:49:43.776Z,1.02
2019-05-23T13:50:48.857Z,0.98
2019-05-23T13:51:53.745Z,1.02
2019-05-23T13:52:59.222Z,1.32
2019-05-23T13:54:05.250Z,2.67
2019-05-23T13:55:10.391Z,1.30
2019-05-23T13:56:14.917Z,2.35
2019-05-23T13:57:19.991Z,1.05
2019-05-23T13:58:25.661Z,0.90
2019-05-23T13:59:31.114Z,2.60
2019-05-23T14:00:35.620Z,1.82
2019-05-23T14:01:40.652Z,1.52
2019-05-23T14:02:45.181Z,1.37
2019-05-23T14:03:50.521Z,0.98
2019-05-23T14:04:55.116Z,0.93
2019-05-23T14:06:00.353Z,0.75
2019-05-23T14:07:06.783Z,1.00
2019-05-23T14:08:13.386Z,0.90
2019-05-23T14:09:20.215Z,1.32
2019-05-23T14:10:25.458Z,1.02
2019-05-23T14:11:30.054Z,1.15
2019-05-23T14:12:35.138Z,1.70
2019-05-23T14:13:40.017Z,3.30
2019-05-23T14:14:45.096Z,1.45
2019-05-23T14:15:51.435Z,1.15
2019-05-23T14:17:10.177Z,1.00
2019-05-23T14:18:16.333Z,1.80
2019-05-23T14:19:21.380Z,1.00
2019-05-23T14:20:26.400Z,1.45
2019-05-23T14:21:32.629Z,1.10
2019-05-23T14:22:38.704Z,1.00
2019-05-23T14:23:43.773Z,1.00
2019-05-23T14:24:48.354Z,0.80
2019-05-23T14:25:54.884Z,1.32
2019-05-23T14:27:01.367Z,1.05
2019-05-23T14:28:08.014Z,0.95
2019-05-23T14:29:12.508Z,0.90
2019-05-23T14:30:35.597Z,1.10
2019-05-23T14:31:41.839Z,1.00
2019-05-23T14:32:47.961Z,1.07
2019-05-23T14:33:54.618Z,0.90
2019-05-23T14:35:00.032Z,1.72
2019-05-23T14:36:15.447Z,1.45
2019-05-23T14:37:30.225Z,1.05
2019-05-23T14:38:35.683Z,0.80
2019-05-23T14:39:41.198Z,0.93
2019-05-23T14:40:46.785Z,0.98
2019-05-23T14:41:56.055Z,0.90
2019-05-23T14:43:02.268Z,1.00
2019-05-23T14:44:07.506Z,0.93